createdAt,value
2022-11-16T00:02:07.472Z,13.2
2022-11-16T00:07:07.589Z,13.1
2022-11-16T00:17:07.445Z,13.1
2022-11-16T00:22:07.447Z,13.1
2022-11-16T00:27:07.471Z,13.1
2022-11-16T00:32:07.456Z,13.1
2022-11-16T00:37:07.454Z,13.2
2022-11-16T00:42:07.462Z,13.2
2022-11-16T00:47:07.463Z,13.2
2022-11-16T00:52:07.470Z,13.2
2022-11-16T00:57:07.483Z,13.2
2022-11-16T01:02:07.479Z,13.2
2022-11-16T01:07:07.545Z,13.2
2022-11-16T01:12:07.478Z,13.2
2022-11-16T01:17:07.481Z,13.2
2022-11-16T01:22:07.478Z,13.2
2022-11-16T01:27:07.489Z,13.3
2022-11-16T01:32:07.489Z,13.2
2022-11-16T01:37:07.492Z,13.3
2022-11-16T01:42:07.505Z,13.2
2022-11-16T01:47:07.502Z,13.2
2022-11-16T01:52:07.501Z,13.2
2022-11-16T01:57:07.504Z,13.2
2022-11-16T02:02:07.506Z,13.2
2022-11-16T02:07:07.560Z,13.2
2022-11-16T02:12:07.511Z,13.2
2022-11-16T02:17:07.515Z,13.2
2022-11-16T02:22:07.520Z,13.2
2022-11-16T02:27:07.521Z,13.2
2022-11-16T02:32:07.525Z,13.2
2022-11-16T02:37:07.537Z,13.2
2022-11-16T02:42:07.538Z,13.2
2022-11-16T02:47:07.537Z,13.2
2022-11-16T02:52:07.536Z,13.2
2022-11-16T02:57:07.551Z,13.2
2022-11-16T03:02:07.552Z,13.2
2022-11-16T03:07:07.549Z,13.2
2022-11-16T03:12:07.547Z,13.3
2022-11-16T03:17:07.550Z,13.3
2022-11-16T03:22:07.549Z,13.3
2022-11-16T03:27:07.552Z,13.4
2022-11-16T03:32:07.557Z,13.4
2022-11-16T03:37:07.573Z,13.4
2022-11-16T03:42:07.568Z,13.4
2022-11-16T03:47:07.563Z,13.4
2022-11-16T03:52:07.578Z,13.4
2022-11-16T03:57:07.579Z,13.4
2022-11-16T04:02:07.577Z,13.4
2022-11-16T04:07:07.670Z,13.3
2022-11-16T04:12:07.584Z,13.3
2022-11-16T04:17:07.590Z,13.3
2022-11-16T04:22:07.592Z,13.3
2022-11-16T04:27:07.589Z,13.2
2022-11-16T04:32:07.596Z,13.2
2022-11-16T04:37:07.598Z,13.2
2022-11-16T04:42:07.597Z,13.1
2022-11-16T04:47:07.609Z,13.1
2022-11-16T04:52:07.679Z,13.0
2022-11-16T04:57:07.602Z,13.0
2022-11-16T05:02:07.606Z,12.9
2022-11-16T05:07:07.717Z,12.8
2022-11-16T05:12:07.612Z,12.7
2022-11-16T05:17:07.620Z,12.6
2022-11-16T05:22:07.629Z,12.5
2022-11-16T05:27:07.624Z,12.5
2022-11-16T05:32:07.769Z,12.5
2022-11-16T05:37:07.625Z,12.4
2022-11-16T05:42:08.486Z,12.5
2022-11-16T05:47:07.631Z,12.5
2022-11-16T05:52:07.676Z,12.4
2022-11-16T05:57:07.637Z,12.4
2022-11-16T06:02:07.635Z,12.3
2022-11-16T06:07:07.837Z,12.2
2022-11-16T06:12:07.645Z,12.1
2022-11-16T06:17:07.772Z,11.9
2022-11-16T06:22:07.643Z,11.8
2022-11-16T06:27:07.650Z,11.7
2022-11-16T06:32:07.651Z,11.6
2022-11-16T06:37:07.648Z,11.4
2022-11-16T06:42:07.650Z,11.3
2022-11-16T06:47:07.660Z,11.2
2022-11-16T06:52:07.659Z,11.1
2022-11-16T06:57:07.679Z,11.0
2022-11-16T07:02:07.695Z,10.9
2022-11-16T07:07:07.691Z,10.9
2022-11-16T07:12:07.687Z,10.8
2022-11-16T07:17:09.613Z,10.8
2022-11-16T07:22:07.666Z,10.7
2022-11-16T07:27:07.678Z,10.7
2022-11-16T07:32:07.674Z,10.7
2022-11-16T07:37:07.677Z,10.7
2022-11-16T07:42:07.689Z,10.6
2022-11-16T07:47:07.684Z,10.7
2022-11-16T07:52:07.686Z,10.6
2022-11-16T07:57:07.690Z,10.7
2022-11-16T08:02:07.731Z,10.7
2022-11-16T08:07:07.768Z,10.7
2022-11-16T08:12:07.703Z,10.7
2022-11-16T08:17:07.706Z,10.8
2022-11-16T08:22:07.699Z,10.8
2022-11-16T08:27:07.709Z,10.8
2022-11-16T08:32:07.712Z,10.8
2022-11-16T08:37:07.715Z,10.9
2022-11-16T08:42:07.720Z,10.9
2022-11-16T08:47:07.718Z,11.0
2022-11-16T08:52:07.723Z,11.0
2022-11-16T08:57:07.727Z,11.1
2022-11-16T09:02:07.833Z,11.1
2022-11-16T09:07:07.871Z,11.1
2022-11-16T09:12:07.733Z,11.2
2022-11-16T09:17:07.739Z,11.3
2022-11-16T09:22:07.739Z,11.3
2022-11-16T09:27:07.741Z,11.4
2022-11-16T09:32:07.742Z,11.5
2022-11-16T09:37:07.745Z,11.6
2022-11-16T09:42:07.756Z,11.7
2022-11-16T09:47:07.752Z,11.8
2022-11-16T09:52:07.752Z,11.8
2022-11-16T09:57:12.223Z,11.9
2022-11-16T10:02:07.768Z,12.0
2022-11-16T10:07:07.853Z,12.1
2022-11-16T10:12:07.778Z,12.1
2022-11-16T10:17:07.768Z,12.2
2022-11-16T10:22:07.770Z,12.3
2022-11-16T10:27:07.782Z,12.4
2022-11-16T10:32:07.783Z,12.4
2022-11-16T10:37:07.785Z,12.5
2022-11-16T10:42:08.088Z,12.6
2022-11-16T10:47:07.794Z,12.6
2022-11-16T10:52:07.814Z,12.7
2022-11-16T10:57:07.796Z,12.8
2022-11-16T11:02:07.811Z,12.8
2022-11-16T11:07:07.855Z,12.9
2022-11-16T11:12:07.812Z,13.0
2022-11-16T11:17:07.812Z,13.1
2022-11-16T11:22:07.831Z,13.2
2022-11-16T11:27:07.816Z,13.3
2022-11-16T11:32:07.832Z,13.3
2022-11-16T11:37:07.852Z,13.4
2022-11-16T11:42:07.833Z,13.5
2022-11-16T11:52:07.833Z,13.7
2022-11-16T11:57:07.833Z,13.8
2022-11-16T12:02:07.839Z,13.9
2022-11-16T12:07:07.875Z,13.9
2022-11-16T12:12:13.340Z,13.8
2022-11-16T12:17:07.856Z,13.9
2022-11-16T12:22:07.867Z,13.9
2022-11-16T12:27:07.859Z,13.9
2022-11-16T12:32:07.860Z,13.9
2022-11-16T12:37:07.862Z,13.9
2022-11-16T12:42:07.862Z,14.0
2022-11-16T12:47:07.869Z,14.1
2022-11-16T12:52:07.872Z,14.3
2022-11-16T12:57:07.881Z,14.5
2022-11-16T13:02:07.886Z,14.5
2022-11-16T13:07:10.655Z,14.6
2022-11-16T13:12:07.888Z,14.5
2022-11-16T13:17:07.895Z,14.5
2022-11-16T13:22:07.889Z,14.5
2022-11-16T13:27:07.905Z,14.5
2022-11-16T13:32:07.907Z,14.5
2022-11-16T13:37:07.904Z,14.3
2022-11-16T13:42:07.905Z,14.2
2022-11-16T13:47:07.905Z,14.3
2022-11-16T13:52:22.711Z,14.4
2022-11-16T13:57:07.912Z,14.4
2022-11-16T14:02:07.918Z,14.4
2022-11-16T14:07:07.956Z,14.5
2022-11-16T14:12:07.921Z,14.6
2022-11-16T14:17:07.927Z,14.6
2022-11-16T14:22:07.928Z,14.5
2022-11-16T14:27:07.944Z,14.4
2022-11-16T14:32:07.941Z,14.3
2022-11-16T14:37:07.934Z,14.2
2022-11-16T14:42:07.936Z,14.1
2022-11-16T14:47:07.945Z,14.1
2022-11-16T14:52:08.350Z,14.0
2022-11-16T14:57:07.944Z,13.9
2022-11-16T15:02:07.958Z,13.8
2022-11-16T15:07:08.025Z,13.6
2022-11-16T15:12:07.952Z,13.5
2022-11-16T15:17:07.965Z,13.4
2022-11-16T15:22:07.952Z,13.3
2022-11-16T15:27:07.962Z,13.1
2022-11-16T15:32:07.960Z,13.0
2022-11-16T15:37:07.962Z,12.8
2022-11-16T15:42:07.974Z,12.7
2022-11-16T15:47:07.959Z,12.6
2022-11-16T15:52:07.964Z,12.5
2022-11-16T15:57:08.071Z,12.3
2022-11-16T16:02:07.971Z,12.2
2022-11-16T16:07:08.008Z,12.2
2022-11-16T16:12:07.973Z,12.2
2022-11-16T16:17:07.979Z,12.2
2022-11-16T16:22:07.982Z,12.2
2022-11-16T16:27:07.981Z,12.2
2022-11-16T16:32:07.989Z,12.3
2022-11-16T16:37:07.997Z,12.2
2022-11-16T16:42:07.993Z,12.2
2022-11-16T16:47:07.995Z,12.2
2022-11-16T16:52:08.002Z,12.2
2022-11-16T16:57:08.007Z,12.2
2022-11-16T17:02:08.010Z,12.2
2022-11-16T17:07:08.032Z,12.2
2022-11-16T17:12:08.016Z,12.2
2022-11-16T17:17:08.016Z,12.2
2022-11-16T17:22:08.008Z,12.1
2022-11-16T17:27:08.022Z,12.1
2022-11-16T17:32:08.023Z,12.0
2022-11-16T17:37:08.018Z,11.8
2022-11-16T17:42:08.022Z,11.7
2022-11-16T17:47:08.033Z,11.6
2022-11-16T17:52:08.047Z,11.5
2022-11-16T17:57:08.026Z,11.4
2022-11-16T18:02:08.037Z,11.3
2022-11-16T18:07:08.098Z,11.2
2022-11-16T18:12:08.046Z,11.2
2022-11-16T18:17:08.041Z,11.1
2022-11-16T18:22:08.044Z,11.1
2022-11-16T18:27:08.039Z,11.1
2022-11-16T18:32:08.048Z,11.1
2022-11-16T18:37:08.048Z,11.0
2022-11-16T18:42:08.053Z,11.0
2022-11-16T18:47:08.051Z,10.9
2022-11-16T18:52:08.062Z,10.9
2022-11-16T18:57:08.056Z,10.9
2022-11-16T19:02:08.056Z,10.9
2022-11-16T19:07:08.120Z,10.9
2022-11-16T19:12:08.078Z,10.9
2022-11-16T19:17:08.065Z,10.9
2022-11-16T19:22:08.068Z,11.0
2022-11-16T19:27:08.068Z,11.0
2022-11-16T19:32:08.074Z,11.0
2022-11-16T19:37:08.079Z,11.0
2022-11-16T19:42:08.082Z,11.0
2022-11-16T19:47:08.085Z,11.0
2022-11-16T19:52:08.085Z,10.9
2022-11-16T19:57:08.087Z,10.9
2022-11-16T20:07:08.134Z,11.0
2022-11-16T20:12:08.102Z,11.0
2022-11-16T20:17:08.093Z,11.0
2022-11-16T20:22:08.099Z,11.0
2022-11-16T20:27:08.103Z,11.1
2022-11-16T20:32:08.105Z,11.1
2022-11-16T20:37:08.109Z,11.1
2022-11-16T20:42:08.118Z,11.1
2022-11-16T20:47:08.115Z,11.1
2022-11-16T20:52:08.111Z,11.2
2022-11-16T20:57:08.126Z,11.1
2022-11-16T21:02:08.125Z,11.1
2022-11-16T21:07:08.224Z,11.2
2022-11-16T21:12:08.123Z,11.2
2022-11-16T21:17:08.124Z,11.2
2022-11-16T21:22:08.132Z,11.2
2022-11-16T21:27:08.135Z,11.2
2022-11-16T21:37:08.134Z,11.3
2022-11-16T21:42:08.141Z,11.3
2022-11-16T21:47:08.142Z,11.3
2022-11-16T21:52:08.148Z,11.3
2022-11-16T21:57:08.158Z,11.3
2022-11-16T22:02:08.153Z,11.4
2022-11-16T22:07:08.183Z,11.4
2022-11-16T22:12:08.172Z,11.5
2022-11-16T22:17:08.165Z,11.5
2022-11-16T22:22:08.165Z,11.5
2022-11-16T22:27:08.174Z,11.5
2022-11-16T22:32:08.170Z,11.5
2022-11-16T22:37:08.184Z,11.5
2022-11-16T22:42:08.179Z,11.4
2022-11-16T22:47:08.184Z,11.4
2022-11-16T22:52:08.183Z,11.4
2022-11-16T22:57:08.189Z,11.3
2022-11-16T23:02:08.191Z,11.3
2022-11-16T23:07:08.230Z,11.4
2022-11-16T23:12:08.189Z,11.3
2022-11-16T23:17:08.202Z,11.3
2022-11-16T23:22:08.197Z,11.3
2022-11-16T23:27:08.204Z,11.2
2022-11-16T23:32:08.203Z,11.3
2022-11-16T23:37:08.221Z,11.3
2022-11-16T23:42:08.216Z,11.2
2022-11-16T23:47:08.217Z,11.2
2022-11-16T23:52:08.213Z,11.3
2022-11-16T23:57:08.217Z,11.3
